Overview Statistics Trail Chart Weather Telemetry Raw packets
 

This is the latest recevied weather packets stored in our database for station/object SV9TNF-57. If no packets are shown the sender has not sent any weather packets the latest 10 day(s).

<< 4 5 6 7 8 9 10 >>
Time Temp. Humidity Pressure Rain* Wind** Luminosity Snow
1788627168 27.22° C 50% 997.8 hPa 0 mm 0 m/s - -
1788626868 27.22° C 50% 997.6 hPa 0 mm 0 m/s - -
1788626568 27.78° C 50% 997.7 hPa 0 mm 0 m/s - -
1788626268 28.33° C 46% 997.6 hPa 0 mm 0 m/s - -
1788625973 28.89° C 44% 997.6 hPa 0 mm 0 m/s - -
1788625667 28.89° C 44% 997.6 hPa 0 mm 0 m/s - -
1788625367 28.89° C 44% 997.5 hPa 0 mm 0 m/s - -
1788625067 28.89° C 44% 997.6 hPa 0 mm 0.45 m/s, 196° - -
1788624767 28.89° C 44% 997.5 hPa 0 mm 0 m/s - -
1788624467 28.89° C 45% 997.6 hPa 0 mm 0.89 m/s, 143° - -
1788624167 28.89° C 46% 997.6 hPa 0 mm 1.34 m/s, 144° - -
1788623867 28.89° C 49% 997.5 hPa 0 mm 4.92 m/s, 126° - -
1788623567 28.89° C 52% 997.5 hPa 0 mm 2.68 m/s, 137° - -
1788623267 28.33° C 56% 997.5 hPa 0 mm 0 m/s - -
1788622967 28.89° C 56% 997.7 hPa 0 mm 0 m/s - -
1788622667 29.44° C 55% 997.6 hPa 0 mm 0 m/s - -
1788622366 29.44° C 57% 997.5 hPa 0 mm 3.58 m/s, 142° - -
1788622066 28.89° C 57% 997.8 hPa 0 mm 0 m/s - -
1788621766 28.89° C 58% 997.6 hPa 0 mm 4.02 m/s, 152° - -
1788621466 28.89° C 59% 997.6 hPa 0 mm 2.24 m/s, 120° - -
1788621167 29.44° C 59% 997.5 hPa 0 mm 0.89 m/s, 152° - -
1788620866 29.44° C 57% 997.4 hPa 0 mm 3.58 m/s, 184° - -
1788620566 29.44° C 57% 997.4 hPa 0 mm 0.89 m/s, 118° - -
1788620265 29.44° C 56% 997.4 hPa 0 mm 3.58 m/s, 150° - -
1788619966 29.44° C 54% 997.1 hPa 0 mm 4.47 m/s, 135° - -

* Rain latest hour (hover to see other rain measurements)
** Current wind speed in m/s (hover to see current wind gust speed)